sensor_id;sensor_type;location;lat;lon;timestamp;temperature;humidity
27439;DHT22;14887;51.252;7.470;2023-08-21T00:01:33;19.10;1.00
27439;DHT22;14887;51.252;7.470;2023-08-21T00:03:59;19.00;99.90
27439;DHT22;14887;51.252;7.470;2023-08-21T00:06:24;19.00;99.90
27439;DHT22;14887;51.252;7.470;2023-08-21T00:08:50;19.00;1.00
27439;DHT22;14887;51.252;7.470;2023-08-21T00:11:16;19.10;1.00
27439;DHT22;14887;51.252;7.470;2023-08-21T00:13:41;19.00;1.00
27439;DHT22;14887;51.252;7.470;2023-08-21T00:16:10;19.00;99.90
27439;DHT22;14887;51.252;7.470;2023-08-21T00:18:36;19.00;1.00
27439;DHT22;14887;51.252;7.470;2023-08-21T00:21:02;19.00;1.00
27439;DHT22;14887;51.252;7.470;2023-08-21T00:23:27;19.00;85.00
27439;DHT22;14887;51.252;7.470;2023-08-21T00:25:53;19.10;30.00
27439;DHT22;14887;51.252;7.470;2023-08-21T00:28:18;19.10;28.10
27439;DHT22;14887;51.252;7.470;2023-08-21T00:30:44;19.00;99.90
27439;DHT22;14887;51.252;7.470;2023-08-21T00:33:09;19.00;99.90
27439;DHT22;14887;51.252;7.470;2023-08-21T00:35:35;18.90;99.90
27439;DHT22;14887;51.252;7.470;2023-08-21T00:38:01;18.90;1.00
27439;DHT22;14887;51.252;7.470;2023-08-21T00:40:26;18.90;1.00
27439;DHT22;14887;51.252;7.470;2023-08-21T00:42:52;18.90;1.00
27439;DHT22;14887;51.252;7.470;2023-08-21T00:45:17;18.90;1.00
27439;DHT22;14887;51.252;7.470;2023-08-21T00:47:43;18.90;33.10
27439;DHT22;14887;51.252;7.470;2023-08-21T00:50:09;18.80;99.90
27439;DHT22;14887;51.252;7.470;2023-08-21T00:52:39;18.80;1.00
27439;DHT22;14887;51.252;7.470;2023-08-21T00:55:06;18.80;90.80
27439;DHT22;14887;51.252;7.470;2023-08-21T00:57:33;18.80;99.90
27439;DHT22;14887;51.252;7.470;2023-08-21T01:00:00;18.90;1.00
27439;DHT22;14887;51.252;7.470;2023-08-21T01:02:26;18.90;1.00
27439;DHT22;14887;51.252;7.470;2023-08-21T01:04:52;18.90;99.90
27439;DHT22;14887;51.252;7.470;2023-08-21T01:07:18;18.90;1.00
27439;DHT22;14887;51.252;7.470;2023-08-21T01:09:54;18.90;99.90
27439;DHT22;14887;51.252;7.470;2023-08-21T01:12:35;18.90;99.90
27439;DHT22;14887;51.252;7.470;2023-08-21T01:15:04;18.90;99.90
27439;DHT22;14887;51.252;7.470;2023-08-21T01:17:33;18.90;99.90
27439;DHT22;14887;51.252;7.470;2023-08-21T01:19:59;18.90;99.90
27439;DHT22;14887;51.252;7.470;2023-08-21T01:22:27;18.80;1.00
27439;DHT22;14887;51.252;7.470;2023-08-21T01:24:54;18.60;1.00
27439;DHT22;14887;51.252;7.470;2023-08-21T01:27:20;18.70;1.00
27439;DHT22;14887;51.252;7.470;2023-08-21T01:29:49;18.60;1.00
27439;DHT22;14887;51.252;7.470;2023-08-21T01:35:13;18.60;1.00
27439;DHT22;14887;51.252;7.470;2023-08-21T01:37:38;18.60;1.00
27439;DHT22;14887;51.252;7.470;2023-08-21T01:40:05;18.50;1.00
27439;DHT22;14887;51.252;7.470;2023-08-21T01:42:31;18.50;99.90
27439;DHT22;14887;51.252;7.470;2023-08-21T01:44:57;18.50;99.90
27439;DHT22;14887;51.252;7.470;2023-08-21T01:47:22;18.50;12.90
27439;DHT22;14887;51.252;7.470;2023-08-21T01:49:48;18.40;99.90
27439;DHT22;14887;51.252;7.470;2023-08-21T01:52:17;18.40;99.90
27439;DHT22;14887;51.252;7.470;2023-08-21T01:54:43;18.40;99.90
27439;DHT22;14887;51.252;7.470;2023-08-21T01:57:09;18.20;99.90
27439;DHT22;14887;51.252;7.470;2023-08-21T01:59:34;18.20;99.90
27439;DHT22;14887;51.252;7.470;2023-08-21T02:02:00;18.10;99.90
27439;DHT22;14887;51.252;7.470;2023-08-21T02:04:25;18.10;99.90
27439;DHT22;14887;51.252;7.470;2023-08-21T02:06:51;18.00;99.90
27439;DHT22;14887;51.252;7.470;2023-08-21T02:09:16;18.00;99.90
27439;DHT22;14887;51.252;7.470;2023-08-21T02:11:42;17.90;99.90
27439;DHT22;14887;51.252;7.470;2023-08-21T02:14:07;17.80;99.90
27439;DHT22;14887;51.252;7.470;2023-08-21T02:16:33;17.70;99.90
27439;DHT22;14887;51.252;7.470;2023-08-21T02:18:58;17.80;99.90
27439;DHT22;14887;51.252;7.470;2023-08-21T02:21:24;17.80;99.90
27439;DHT22;14887;51.252;7.470;2023-08-21T02:23:50;17.80;99.90
27439;DHT22;14887;51.252;7.470;2023-08-21T02:26:15;17.80;1.00
27439;DHT22;14887;51.252;7.470;2023-08-21T02:28:41;17.90;99.90
27439;DHT22;14887;51.252;7.470;2023-08-21T02:31:09;18.00;99.90
27439;DHT22;14887;51.252;7.470;2023-08-21T02:33:35;18.00;99.90
27439;DHT22;14887;51.252;7.470;2023-08-21T02:36:00;17.90;99.90
27439;DHT22;14887;51.252;7.470;2023-08-21T02:38:28;17.90;1.00
27439;DHT22;14887;51.252;7.470;2023-08-21T02:40:53;17.80;99.90
27439;DHT22;14887;51.252;7.470;2023-08-21T02:43:19;17.70;1.00
27439;DHT22;14887;51.252;7.470;2023-08-21T02:45:45;17.60;1.00
27439;DHT22;14887;51.252;7.470;2023-08-21T02:48:10;17.60;1.00
27439;DHT22;14887;51.252;7.470;2023-08-21T02:50:36;17.60;1.00
27439;DHT22;14887;51.252;7.470;2023-08-21T02:53:02;17.60;1.00
27439;DHT22;14887;51.252;7.470;2023-08-21T02:55:27;17.60;1.00
27439;DHT22;14887;51.252;7.470;2023-08-21T02:57:54;17.60;99.90
27439;DHT22;14887;51.252;7.470;2023-08-21T03:00:20;17.60;99.90
27439;DHT22;14887;51.252;7.470;2023-08-21T03:02:45;17.60;99.90
27439;DHT22;14887;51.252;7.470;2023-08-21T03:05:11;17.50;1.00
27439;DHT22;14887;51.252;7.470;2023-08-21T03:07:37;17.50;1.00
27439;DHT22;14887;51.252;7.470;2023-08-21T03:10:03;17.40;1.00
27439;DHT22;14887;51.252;7.470;2023-08-21T03:12:29;17.30;1.00
27439;DHT22;14887;51.252;7.470;2023-08-21T03:14:54;17.40;1.00
27439;DHT22;14887;51.252;7.470;2023-08-21T03:17:20;17.30;1.00
27439;DHT22;14887;51.252;7.470;2023-08-21T03:19:46;17.30;1.00
27439;DHT22;14887;51.252;7.470;2023-08-21T03:22:11;17.40;1.00
27439;DHT22;14887;51.252;7.470;2023-08-21T03:24:37;17.40;1.00
27439;DHT22;14887;51.252;7.470;2023-08-21T03:27:03;17.40;1.00
27439;DHT22;14887;51.252;7.470;2023-08-21T03:29:28;17.40;1.00
27439;DHT22;14887;51.252;7.470;2023-08-21T03:31:54;17.50;1.00
27439;DHT22;14887;51.252;7.470;2023-08-21T03:34:22;17.60;1.00
27439;DHT22;14887;51.252;7.470;2023-08-21T03:36:48;17.70;99.90
27439;DHT22;14887;51.252;7.470;2023-08-21T03:39:14;17.70;99.90
27439;DHT22;14887;51.252;7.470;2023-08-21T03:41:40;17.80;99.90
27439;DHT22;14887;51.252;7.470;2023-08-21T03:44:06;17.80;99.90
27439;DHT22;14887;51.252;7.470;2023-08-21T03:46:31;17.90;99.90
27439;DHT22;14887;51.252;7.470;2023-08-21T03:48:57;17.90;99.90
27439;DHT22;14887;51.252;7.470;2023-08-21T03:51:22;18.00;91.20
27439;DHT22;14887;51.252;7.470;2023-08-21T03:53:49;18.10;1.00
27439;DHT22;14887;51.252;7.470;2023-08-21T03:56:15;18.10;1.00
27439;DHT22;14887;51.252;7.470;2023-08-21T03:58:41;18.10;1.00
27439;DHT22;14887;51.252;7.470;2023-08-21T04:01:06;18.10;99.90
27439;DHT22;14887;51.252;7.470;2023-08-21T04:03:32;18.10;99.90
27439;DHT22;14887;51.252;7.470;2023-08-21T04:05:58;18.10;99.90
27439;DHT22;14887;51.252;7.470;2023-08-21T04:08:24;18.00;99.90
27439;DHT22;14887;51.252;7.470;2023-08-21T04:10:50;17.90;99.90
27439;DHT22;14887;51.252;7.470;2023-08-21T04:13:18;17.90;99.90
27439;DHT22;14887;51.252;7.470;2023-08-21T04:15:47;17.90;99.90
27439;DHT22;14887;51.252;7.470;2023-08-21T04:18:13;17.70;99.90
27439;DHT22;14887;51.252;7.470;2023-08-21T04:20:39;17.80;99.90
27439;DHT22;14887;51.252;7.470;2023-08-21T04:23:04;17.70;99.90
27439;DHT22;14887;51.252;7.470;2023-08-21T04:25:30;17.70;1.00
27439;DHT22;14887;51.252;7.470;2023-08-21T04:27:55;17.70;1.00
27439;DHT22;14887;51.252;7.470;2023-08-21T04:30:21;17.70;99.90
27439;DHT22;14887;51.252;7.470;2023-08-21T04:32:47;17.70;1.00
27439;DHT22;14887;51.252;7.470;2023-08-21T04:35:14;17.60;1.00
27439;DHT22;14887;51.252;7.470;2023-08-21T04:37:45;17.70;1.00
27439;DHT22;14887;51.252;7.470;2023-08-21T04:40:11;17.80;1.00
27439;DHT22;14887;51.252;7.470;2023-08-21T04:42:37;17.70;1.00
27439;DHT22;14887;51.252;7.470;2023-08-21T04:45:03;17.70;1.00
27439;DHT22;14887;51.252;7.470;2023-08-21T04:47:30;17.60;1.00
27439;DHT22;14887;51.252;7.470;2023-08-21T04:49:56;17.70;1.00
27439;DHT22;14887;51.252;7.470;2023-08-21T04:52:23;17.70;1.00
27439;DHT22;14887;51.252;7.470;2023-08-21T04:54:49;17.70;1.00
27439;DHT22;14887;51.252;7.470;2023-08-21T04:57:15;17.80;1.00
27439;DHT22;14887;51.252;7.470;2023-08-21T04:59:41;17.80;1.00
27439;DHT22;14887;51.252;7.470;2023-08-21T05:02:07;17.80;1.00
27439;DHT22;14887;51.252;7.470;2023-08-21T05:04:33;17.80;1.00
27439;DHT22;14887;51.252;7.470;2023-08-21T05:07:00;17.90;1.00
27439;DHT22;14887;51.252;7.470;2023-08-21T05:09:25;18.00;1.00
27439;DHT22;14887;51.252;7.470;2023-08-21T05:11:51;18.00;99.90
27439;DHT22;14887;51.252;7.470;2023-08-21T05:14:16;18.10;99.90
27439;DHT22;14887;51.252;7.470;2023-08-21T05:16:45;18.20;66.00
27439;DHT22;14887;51.252;7.470;2023-08-21T05:19:10;18.40;1.00
27439;DHT22;14887;51.252;7.470;2023-08-21T05:21:36;18.50;1.00
27439;DHT22;14887;51.252;7.470;2023-08-21T05:24:02;18.70;16.60
27439;DHT22;14887;51.252;7.470;2023-08-21T05:26:27;18.70;1.00
27439;DHT22;14887;51.252;7.470;2023-08-21T05:28:53;18.80;1.00
27439;DHT22;14887;51.252;7.470;2023-08-21T05:31:18;18.80;1.00
27439;DHT22;14887;51.252;7.470;2023-08-21T05:33:44;18.90;99.90
27439;DHT22;14887;51.252;7.470;2023-08-21T05:36:10;18.90;1.00
27439;DHT22;14887;51.252;7.470;2023-08-21T05:38:36;18.90;1.00
27439;DHT22;14887;51.252;7.470;2023-08-21T05:41:01;19.00;99.90
27439;DHT22;14887;51.252;7.470;2023-08-21T05:43:27;19.10;1.00
27439;DHT22;14887;51.252;7.470;2023-08-21T05:45:52;19.10;1.00
27439;DHT22;14887;51.252;7.470;2023-08-21T05:48:18;19.40;99.90
27439;DHT22;14887;51.252;7.470;2023-08-21T05:50:43;19.80;1.00
27439;DHT22;14887;51.252;7.470;2023-08-21T05:53:09;20.30;1.00
27439;DHT22;14887;51.252;7.470;2023-08-21T05:55:37;20.80;99.90
27439;DHT22;14887;51.252;7.470;2023-08-21T05:58:03;21.20;1.00
27439;DHT22;14887;51.252;7.470;2023-08-21T06:00:29;21.40;1.00
27439;DHT22;14887;51.252;7.470;2023-08-21T06:02:54;21.70;99.90
27439;DHT22;14887;51.252;7.470;2023-08-21T06:05:20;21.60;1.00
27439;DHT22;14887;51.252;7.470;2023-08-21T06:07:45;21.40;1.00
27439;DHT22;14887;51.252;7.470;2023-08-21T06:10:11;21.20;1.00
27439;DHT22;14887;51.252;7.470;2023-08-21T06:12:39;20.80;1.00
27439;DHT22;14887;51.252;7.470;2023-08-21T06:15:05;20.50;99.90
27439;DHT22;14887;51.252;7.470;2023-08-21T06:17:33;20.10;1.00
27439;DHT22;14887;51.252;7.470;2023-08-21T06:19:58;19.90;1.00
27439;DHT22;14887;51.252;7.470;2023-08-21T06:22:24;19.80;99.90
27439;DHT22;14887;51.252;7.470;2023-08-21T06:24:50;19.50;1.00
27439;DHT22;14887;51.252;7.470;2023-08-21T06:27:16;19.50;99.90
27439;DHT22;14887;51.252;7.470;2023-08-21T06:29:41;19.40;99.90
27439;DHT22;14887;51.252;7.470;2023-08-21T06:32:07;19.30;1.00
27439;DHT22;14887;51.252;7.470;2023-08-21T06:34:32;19.30;1.00
27439;DHT22;14887;51.252;7.470;2023-08-21T06:36:58;19.90;1.00
27439;DHT22;14887;51.252;7.470;2023-08-21T06:39:25;21.00;1.00
27439;DHT22;14887;51.252;7.470;2023-08-21T06:41:51;22.00;1.00
27439;DHT22;14887;51.252;7.470;2023-08-21T06:44:16;23.10;99.90
27439;DHT22;14887;51.252;7.470;2023-08-21T06:46:42;24.20;7.40
27439;DHT22;14887;51.252;7.470;2023-08-21T06:49:08;25.20;1.00
27439;DHT22;14887;51.252;7.470;2023-08-21T06:51:34;25.90;1.00
27439;DHT22;14887;51.252;7.470;2023-08-21T06:53:59;26.40;1.00
27439;DHT22;14887;51.252;7.470;2023-08-21T06:56:25;26.70;1.00
27439;DHT22;14887;51.252;7.470;2023-08-21T06:58:50;26.40;99.90
27439;DHT22;14887;51.252;7.470;2023-08-21T07:01:17;26.40;99.90
27439;DHT22;14887;51.252;7.470;2023-08-21T07:03:43;26.60;99.90
27439;DHT22;14887;51.252;7.470;2023-08-21T07:06:08;27.00;99.90
27439;DHT22;14887;51.252;7.470;2023-08-21T07:08:34;27.70;99.90
27439;DHT22;14887;51.252;7.470;2023-08-21T07:11:02;27.90;99.90
27439;DHT22;14887;51.252;7.470;2023-08-21T07:13:29;28.40;99.90
27439;DHT22;14887;51.252;7.470;2023-08-21T07:15:55;28.80;99.90
27439;DHT22;14887;51.252;7.470;2023-08-21T07:18:20;29.10;99.90
27439;DHT22;14887;51.252;7.470;2023-08-21T07:20:46;29.30;99.90
27439;DHT22;14887;51.252;7.470;2023-08-21T07:23:12;30.10;99.90
27439;DHT22;14887;51.252;7.470;2023-08-21T07:25:37;30.30;99.90
27439;DHT22;14887;51.252;7.470;2023-08-21T07:28:03;30.40;99.90
27439;DHT22;14887;51.252;7.470;2023-08-21T07:30:29;30.90;99.90
27439;DHT22;14887;51.252;7.470;2023-08-21T07:32:55;31.30;99.90
27439;DHT22;14887;51.252;7.470;2023-08-21T07:35:20;31.80;99.90
27439;DHT22;14887;51.252;7.470;2023-08-21T07:37:46;32.30;99.90
27439;DHT22;14887;51.252;7.470;2023-08-21T07:40:12;32.80;99.90
27439;DHT22;14887;51.252;7.470;2023-08-21T07:42:38;33.30;99.90
27439;DHT22;14887;51.252;7.470;2023-08-21T07:45:04;33.50;99.90
27439;DHT22;14887;51.252;7.470;2023-08-21T07:47:30;33.80;99.90
27439;DHT22;14887;51.252;7.470;2023-08-21T07:49:56;34.50;99.90
27439;DHT22;14887;51.252;7.470;2023-08-21T07:52:23;35.20;99.90
27439;DHT22;14887;51.252;7.470;2023-08-21T07:54:53;35.30;99.90
27439;DHT22;14887;51.252;7.470;2023-08-21T07:57:18;34.20;99.90
27439;DHT22;14887;51.252;7.470;2023-08-21T07:59:44;32.30;99.90
27439;DHT22;14887;51.252;7.470;2023-08-21T08:02:10;31.00;99.90
27439;DHT22;14887;51.252;7.470;2023-08-21T08:04:38;30.60;99.90
27439;DHT22;14887;51.252;7.470;2023-08-21T08:07:04;29.70;99.90
27439;DHT22;14887;51.252;7.470;2023-08-21T08:09:30;29.40;99.90
27439;DHT22;14887;51.252;7.470;2023-08-21T08:11:56;30.50;99.90
27439;DHT22;14887;51.252;7.470;2023-08-21T08:14:21;32.10;99.90
27439;DHT22;14887;51.252;7.470;2023-08-21T08:16:47;33.40;99.90
27439;DHT22;14887;51.252;7.470;2023-08-21T08:19:12;34.30;99.90
27439;DHT22;14887;51.252;7.470;2023-08-21T08:21:38;35.10;99.90
27439;DHT22;14887;51.252;7.470;2023-08-21T08:24:04;35.40;99.90
27439;DHT22;14887;51.252;7.470;2023-08-21T08:26:29;35.90;99.90
27439;DHT22;14887;51.252;7.470;2023-08-21T08:28:55;36.20;99.90
27439;DHT22;14887;51.252;7.470;2023-08-21T08:31:20;36.30;99.90
27439;DHT22;14887;51.252;7.470;2023-08-21T08:33:46;36.40;99.90
27439;DHT22;14887;51.252;7.470;2023-08-21T08:36:13;36.30;99.90
27439;DHT22;14887;51.252;7.470;2023-08-21T08:38:39;36.60;99.90
27439;DHT22;14887;51.252;7.470;2023-08-21T08:41:14;36.90;99.90
27439;DHT22;14887;51.252;7.470;2023-08-21T08:43:42;37.30;99.90
27439;DHT22;14887;51.252;7.470;2023-08-21T08:46:08;37.40;99.90
27439;DHT22;14887;51.252;7.470;2023-08-21T08:48:35;37.20;99.90
27439;DHT22;14887;51.252;7.470;2023-08-21T08:51:02;36.90;99.90
27439;DHT22;14887;51.252;7.470;2023-08-21T08:53:31;36.70;99.90
27439;DHT22;14887;51.252;7.470;2023-08-21T08:55:58;37.20;99.90
27439;DHT22;14887;51.252;7.470;2023-08-21T08:58:24;37.10;99.90
27439;DHT22;14887;51.252;7.470;2023-08-21T09:00:49;37.10;99.90
27439;DHT22;14887;51.252;7.470;2023-08-21T09:03:15;36.90;99.90
27439;DHT22;14887;51.252;7.470;2023-08-21T09:05:41;36.50;99.90
27439;DHT22;14887;51.252;7.470;2023-08-21T09:08:11;36.10;99.90
27439;DHT22;14887;51.252;7.470;2023-08-21T09:10:38;35.70;99.90
27439;DHT22;14887;51.252;7.470;2023-08-21T09:13:30;35.50;99.90
27439;DHT22;14887;51.252;7.470;2023-08-21T09:15:56;34.20;99.90
27439;DHT22;14887;51.252;7.470;2023-08-21T09:18:22;33.20;99.90
27439;DHT22;14887;51.252;7.470;2023-08-21T09:20:47;33.00;99.90
27439;DHT22;14887;51.252;7.470;2023-08-21T09:23:17;33.40;99.90
27439;DHT22;14887;51.252;7.470;2023-08-21T09:25:47;33.90;99.90
27439;DHT22;14887;51.252;7.470;2023-08-21T09:28:13;34.40;99.90
27439;DHT22;14887;51.252;7.470;2023-08-21T09:30:47;34.50;99.90
27439;DHT22;14887;51.252;7.470;2023-08-21T09:33:13;34.30;99.90
27439;DHT22;14887;51.252;7.470;2023-08-21T09:35:39;34.20;99.90
27439;DHT22;14887;51.252;7.470;2023-08-21T09:38:07;33.90;99.90
27439;DHT22;14887;51.252;7.470;2023-08-21T09:40:33;34.00;99.90
27439;DHT22;14887;51.252;7.470;2023-08-21T09:42:59;34.20;99.90
27439;DHT22;14887;51.252;7.470;2023-08-21T09:45:26;33.40;99.90
27439;DHT22;14887;51.252;7.470;2023-08-21T09:47:53;32.80;99.90
27439;DHT22;14887;51.252;7.470;2023-08-21T09:50:19;32.40;99.90
27439;DHT22;14887;51.252;7.470;2023-08-21T09:52:46;32.40;99.90
27439;DHT22;14887;51.252;7.470;2023-08-21T09:55:13;32.90;99.90
27439;DHT22;14887;51.252;7.470;2023-08-21T09:57:39;32.70;99.90
27439;DHT22;14887;51.252;7.470;2023-08-21T10:00:07;32.60;99.90
27439;DHT22;14887;51.252;7.470;2023-08-21T10:02:50;32.40;99.90
27439;DHT22;14887;51.252;7.470;2023-08-21T10:05:17;32.20;99.90
27439;DHT22;14887;51.252;7.470;2023-08-21T10:07:47;31.90;99.90
27439;DHT22;14887;51.252;7.470;2023-08-21T10:10:14;31.40;99.90
27439;DHT22;14887;51.252;7.470;2023-08-21T10:12:40;31.70;99.90
27439;DHT22;14887;51.252;7.470;2023-08-21T10:15:09;32.20;99.90
27439;DHT22;14887;51.252;7.470;2023-08-21T10:17:38;32.50;99.90
27439;DHT22;14887;51.252;7.470;2023-08-21T10:20:05;32.70;99.90
27439;DHT22;14887;51.252;7.470;2023-08-21T10:22:45;32.70;99.90
27439;DHT22;14887;51.252;7.470;2023-08-21T10:25:15;32.60;99.90
27439;DHT22;14887;51.252;7.470;2023-08-21T10:27:42;32.60;99.90
27439;DHT22;14887;51.252;7.470;2023-08-21T10:30:15;32.60;99.90
27439;DHT22;14887;51.252;7.470;2023-08-21T10:32:48;32.50;99.90
27439;DHT22;14887;51.252;7.470;2023-08-21T10:35:28;32.60;99.90
27439;DHT22;14887;51.252;7.470;2023-08-21T10:38:13;32.80;99.90
27439;DHT22;14887;51.252;7.470;2023-08-21T10:41:04;33.40;99.90
27439;DHT22;14887;51.252;7.470;2023-08-21T10:43:40;33.80;99.90
27439;DHT22;14887;51.252;7.470;2023-08-21T10:46:07;34.00;99.90
27439;DHT22;14887;51.252;7.470;2023-08-21T10:48:34;33.70;99.90
27439;DHT22;14887;51.252;7.470;2023-08-21T10:51:06;33.30;99.90
27439;DHT22;14887;51.252;7.470;2023-08-21T10:53:33;33.00;99.90
27439;DHT22;14887;51.252;7.470;2023-08-21T10:56:03;32.70;99.90
27439;DHT22;14887;51.252;7.470;2023-08-21T10:58:34;32.80;99.90
27439;DHT22;14887;51.252;7.470;2023-08-21T11:00:59;32.90;99.90
27439;DHT22;14887;51.252;7.470;2023-08-21T11:03:25;32.60;99.90
27439;DHT22;14887;51.252;7.470;2023-08-21T11:06:04;32.50;99.90
27439;DHT22;14887;51.252;7.470;2023-08-21T11:08:32;32.10;99.90
27439;DHT22;14887;51.252;7.470;2023-08-21T11:10:58;31.40;99.90
27439;DHT22;14887;51.252;7.470;2023-08-21T11:13:24;30.70;99.90
27439;DHT22;14887;51.252;7.470;2023-08-21T11:15:58;30.50;99.90
27439;DHT22;14887;51.252;7.470;2023-08-21T11:18:36;30.70;99.90
27439;DHT22;14887;51.252;7.470;2023-08-21T11:21:10;30.80;99.90
27439;DHT22;14887;51.252;7.470;2023-08-21T11:23:37;30.90;99.90
27439;DHT22;14887;51.252;7.470;2023-08-21T11:26:03;31.10;99.90
27439;DHT22;14887;51.252;7.470;2023-08-21T11:28:30;31.50;99.90
27439;DHT22;14887;51.252;7.470;2023-08-21T11:30:57;31.40;99.90
27439;DHT22;14887;51.252;7.470;2023-08-21T11:33:23;31.40;99.90
27439;DHT22;14887;51.252;7.470;2023-08-21T11:35:49;31.90;99.90
27439;DHT22;14887;51.252;7.470;2023-08-21T11:38:20;32.00;99.90
27439;DHT22;14887;51.252;7.470;2023-08-21T11:40:59;32.00;99.90
27439;DHT22;14887;51.252;7.470;2023-08-21T11:43:39;32.20;99.90
27439;DHT22;14887;51.252;7.470;2023-08-21T11:46:06;32.40;99.90
27439;DHT22;14887;51.252;7.470;2023-08-21T11:48:32;32.10;99.90
27439;DHT22;14887;51.252;7.470;2023-08-21T11:50:58;31.90;99.90
27439;DHT22;14887;51.252;7.470;2023-08-21T11:55:56;31.40;99.90
27439;DHT22;14887;51.252;7.470;2023-08-21T11:58:22;31.30;99.90
27439;DHT22;14887;51.252;7.470;2023-08-21T12:00:47;31.40;99.90
27439;DHT22;14887;51.252;7.470;2023-08-21T12:03:18;31.60;99.90
27439;DHT22;14887;51.252;7.470;2023-08-21T12:05:43;31.70;99.90
27439;DHT22;14887;51.252;7.470;2023-08-21T12:08:09;32.10;99.90
27439;DHT22;14887;51.252;7.470;2023-08-21T12:10:35;32.10;99.90
27439;DHT22;14887;51.252;7.470;2023-08-21T12:13:01;31.70;99.90
27439;DHT22;14887;51.252;7.470;2023-08-21T12:15:27;31.90;99.90
27439;DHT22;14887;51.252;7.470;2023-08-21T12:17:52;32.20;99.90
27439;DHT22;14887;51.252;7.470;2023-08-21T12:20:18;32.40;99.90
27439;DHT22;14887;51.252;7.470;2023-08-21T12:22:43;32.70;99.90
27439;DHT22;14887;51.252;7.470;2023-08-21T12:25:09;33.30;99.90
27439;DHT22;14887;51.252;7.470;2023-08-21T12:27:36;33.60;99.90
27439;DHT22;14887;51.252;7.470;2023-08-21T12:30:01;33.70;99.90
27439;DHT22;14887;51.252;7.470;2023-08-21T12:32:27;32.70;99.90
27439;DHT22;14887;51.252;7.470;2023-08-21T12:34:53;32.20;99.90
27439;DHT22;14887;51.252;7.470;2023-08-21T12:37:18;32.30;99.90
27439;DHT22;14887;51.252;7.470;2023-08-21T12:39:44;32.90;99.90
27439;DHT22;14887;51.252;7.470;2023-08-21T12:42:09;33.70;99.90
27439;DHT22;14887;51.252;7.470;2023-08-21T12:44:35;34.10;99.90
27439;DHT22;14887;51.252;7.470;2023-08-21T12:47:01;33.50;99.90
27439;DHT22;14887;51.252;7.470;2023-08-21T12:49:27;32.60;99.90
27439;DHT22;14887;51.252;7.470;2023-08-21T12:51:53;31.80;99.90
27439;DHT22;14887;51.252;7.470;2023-08-21T12:54:19;31.10;99.90
27439;DHT22;14887;51.252;7.470;2023-08-21T12:56:44;30.30;99.90
27439;DHT22;14887;51.252;7.470;2023-08-21T12:59:10;31.10;99.90
27439;DHT22;14887;51.252;7.470;2023-08-21T13:01:35;32.60;99.90
27439;DHT22;14887;51.252;7.470;2023-08-21T13:04:03;33.80;99.90
27439;DHT22;14887;51.252;7.470;2023-08-21T13:06:29;34.80;99.90
27439;DHT22;14887;51.252;7.470;2023-08-21T13:08:54;35.90;99.90
27439;DHT22;14887;51.252;7.470;2023-08-21T13:11:20;36.80;99.90
27439;DHT22;14887;51.252;7.470;2023-08-21T13:13:47;37.10;99.90
27439;DHT22;14887;51.252;7.470;2023-08-21T13:16:12;36.30;99.90
27439;DHT22;14887;51.252;7.470;2023-08-21T13:18:38;35.30;99.90
27439;DHT22;14887;51.252;7.470;2023-08-21T13:21:04;34.30;99.90
27439;DHT22;14887;51.252;7.470;2023-08-21T13:23:30;32.90;99.90
27439;DHT22;14887;51.252;7.470;2023-08-21T13:25:56;32.10;99.90
27439;DHT22;14887;51.252;7.470;2023-08-21T13:28:23;31.80;99.90
27439;DHT22;14887;51.252;7.470;2023-08-21T13:30:49;31.60;99.90
27439;DHT22;14887;51.252;7.470;2023-08-21T13:33:15;32.80;99.90
27439;DHT22;14887;51.252;7.470;2023-08-21T13:35:43;34.70;99.90
27439;DHT22;14887;51.252;7.470;2023-08-21T13:38:09;36.50;99.90
27439;DHT22;14887;51.252;7.470;2023-08-21T13:40:34;37.60;99.90
27439;DHT22;14887;51.252;7.470;2023-08-21T13:43:00;38.90;99.90
27439;DHT22;14887;51.252;7.470;2023-08-21T13:45:26;39.80;99.90
27439;DHT22;14887;51.252;7.470;2023-08-21T13:47:51;40.00;99.90
27439;DHT22;14887;51.252;7.470;2023-08-21T13:50:18;39.90;99.90
27439;DHT22;14887;51.252;7.470;2023-08-21T13:52:46;40.00;99.90
27439;DHT22;14887;51.252;7.470;2023-08-21T13:55:13;40.40;99.90
27439;DHT22;14887;51.252;7.470;2023-08-21T13:57:39;40.40;99.90
27439;DHT22;14887;51.252;7.470;2023-08-21T14:00:06;40.80;99.90
27439;DHT22;14887;51.252;7.470;2023-08-21T14:02:33;40.80;99.90
27439;DHT22;14887;51.252;7.470;2023-08-21T14:05:00;40.80;99.90
27439;DHT22;14887;51.252;7.470;2023-08-21T14:07:25;41.30;99.90
27439;DHT22;14887;51.252;7.470;2023-08-21T14:09:51;41.30;99.90
27439;DHT22;14887;51.252;7.470;2023-08-21T14:12:16;40.30;99.90
27439;DHT22;14887;51.252;7.470;2023-08-21T14:14:42;38.70;99.90
27439;DHT22;14887;51.252;7.470;2023-08-21T14:17:08;36.50;96.90
27439;DHT22;14887;51.252;7.470;2023-08-21T14:19:33;35.40;90.70
27439;DHT22;14887;51.252;7.470;2023-08-21T14:21:59;35.00;86.20
27439;DHT22;14887;51.252;7.470;2023-08-21T14:24:26;35.10;88.90
27439;DHT22;14887;51.252;7.470;2023-08-21T14:26:51;35.80;93.80
27439;DHT22;14887;51.252;7.470;2023-08-21T14:29:17;36.90;99.90
27439;DHT22;14887;51.252;7.470;2023-08-21T14:31:43;37.30;99.90
27439;DHT22;14887;51.252;7.470;2023-08-21T14:34:08;38.20;99.90
27439;DHT22;14887;51.252;7.470;2023-08-21T14:36:34;38.90;99.90
27439;DHT22;14887;51.252;7.470;2023-08-21T14:39:00;39.40;99.90
27439;DHT22;14887;51.252;7.470;2023-08-21T14:41:25;39.20;99.90
27439;DHT22;14887;51.252;7.470;2023-08-21T14:43:51;38.60;99.90
27439;DHT22;14887;51.252;7.470;2023-08-21T14:46:17;37.40;96.60
27439;DHT22;14887;51.252;7.470;2023-08-21T14:48:42;36.30;90.00
27439;DHT22;14887;51.252;7.470;2023-08-21T14:51:08;35.60;84.20
27439;DHT22;14887;51.252;7.470;2023-08-21T14:53:33;34.60;71.90
27439;DHT22;14887;51.252;7.470;2023-08-21T14:55:59;33.80;62.10
27439;DHT22;14887;51.252;7.470;2023-08-21T14:58:25;32.70;54.20
27439;DHT22;14887;51.252;7.470;2023-08-21T15:00:54;31.70;46.70
27439;DHT22;14887;51.252;7.470;2023-08-21T15:03:20;30.90;48.20
27439;DHT22;14887;51.252;7.470;2023-08-21T15:05:46;31.80;59.20
27439;DHT22;14887;51.252;7.470;2023-08-21T15:08:12;33.10;67.10
27439;DHT22;14887;51.252;7.470;2023-08-21T15:10:38;34.40;82.60
27439;DHT22;14887;51.252;7.470;2023-08-21T15:13:05;35.40;89.30
27439;DHT22;14887;51.252;7.470;2023-08-21T15:15:30;36.80;96.10
27439;DHT22;14887;51.252;7.470;2023-08-21T15:17:56;37.00;95.40
27439;DHT22;14887;51.252;7.470;2023-08-21T15:20:22;37.40;97.00
27439;DHT22;14887;51.252;7.470;2023-08-21T15:22:48;38.00;99.20
27439;DHT22;14887;51.252;7.470;2023-08-21T15:25:15;38.70;99.90
27439;DHT22;14887;51.252;7.470;2023-08-21T15:27:41;38.30;98.20
27439;DHT22;14887;51.252;7.470;2023-08-21T15:30:07;37.60;93.30
27439;DHT22;14887;51.252;7.470;2023-08-21T15:32:34;37.80;92.80
27439;DHT22;14887;51.252;7.470;2023-08-21T15:34:59;38.20;96.00
27439;DHT22;14887;51.252;7.470;2023-08-21T15:37:26;38.60;97.20